sensor_id;sensor_type;location;lat;lon;timestamp;pressure;altitude;pressure_sealevel;temperature;humidity
68988;BME280;56038;46.080;11.116;2023-12-20T00:00:29;99608.53;;;1.86;100.00
68988;BME280;56038;46.080;11.116;2023-12-20T00:05:31;99597.38;;;1.86;100.00
68988;BME280;56038;46.080;11.116;2023-12-20T00:10:33;99578.47;;;1.87;100.00
68988;BME280;56038;46.080;11.116;2023-12-20T00:15:36;99574.22;;;1.90;100.00
68988;BME280;56038;46.080;11.116;2023-12-20T00:20:38;99573.34;;;1.90;100.00
68988;BME280;56038;46.080;11.116;2023-12-20T00:25:40;99557.03;;;1.85;100.00
68988;BME280;56038;46.080;11.116;2023-12-20T00:30:43;99548.44;;;1.83;100.00
68988;BME280;56038;46.080;11.116;2023-12-20T00:35:45;99545.03;;;1.77;100.00
68988;BME280;56038;46.080;11.116;2023-12-20T00:40:46;99538.19;;;1.67;100.00
68988;BME280;56038;46.080;11.116;2023-12-20T00:45:51;99533.91;;;1.60;100.00
68988;BME280;56038;46.080;11.116;2023-12-20T00:50:53;99518.47;;;1.51;100.00
68988;BME280;56038;46.080;11.116;2023-12-20T00:55:54;99515.91;;;1.48;100.00
68988;BME280;56038;46.080;11.116;2023-12-20T01:00:58;99497.88;;;1.42;100.00
68988;BME280;56038;46.080;11.116;2023-12-20T01:05:59;99490.19;;;1.36;100.00
68988;BME280;56038;46.080;11.116;2023-12-20T01:11:03;99498.75;;;1.38;100.00
68988;BME280;56038;46.080;11.116;2023-12-20T01:16:10;99489.34;;;1.28;100.00
68988;BME280;56038;46.080;11.116;2023-12-20T01:21:11;99482.47;;;1.27;100.00
68988;BME280;56038;46.080;11.116;2023-12-20T01:26:14;99476.44;;;1.26;100.00
68988;BME280;56038;46.080;11.116;2023-12-20T01:31:17;99473.88;;;1.25;100.00
68988;BME280;56038;46.080;11.116;2023-12-20T01:36:19;99457.59;;;1.19;100.00
68988;BME280;56038;46.080;11.116;2023-12-20T01:41:21;99460.19;;;1.19;100.00
68988;BME280;56038;46.080;11.116;2023-12-20T01:46:24;99457.59;;;1.23;100.00
68988;BME280;56038;46.080;11.116;2023-12-20T01:51:27;99444.75;;;1.15;100.00
68988;BME280;56038;46.080;11.116;2023-12-20T01:56:28;99446.47;;;1.05;100.00
68988;BME280;56038;46.080;11.116;2023-12-20T02:01:32;99437.91;;;1.00;100.00
68988;BME280;56038;46.080;11.116;2023-12-20T02:06:34;99431.06;;;1.01;100.00
68988;BME280;56038;46.080;11.116;2023-12-20T02:11:36;99433.63;;;1.02;100.00
68988;BME280;56038;46.080;11.116;2023-12-20T02:16:39;99437.88;;;1.06;100.00
68988;BME280;56038;46.080;11.116;2023-12-20T02:21:42;99444.75;;;1.09;100.00
68988;BME280;56038;46.080;11.116;2023-12-20T02:26:44;99443.03;;;1.09;100.00
68988;BME280;56038;46.080;11.116;2023-12-20T02:31:45;99453.31;;;1.09;100.00
68988;BME280;56038;46.080;11.116;2023-12-20T02:36:48;99430.19;;;1.05;100.00
68988;BME280;56038;46.080;11.116;2023-12-20T02:41:50;99421.63;;;1.03;100.00
68988;BME280;56038;46.080;11.116;2023-12-20T02:46:51;99409.59;;;1.05;100.00
68988;BME280;56038;46.080;11.116;2023-12-20T02:51:54;99398.44;;;1.09;100.00
68988;BME280;56038;46.080;11.116;2023-12-20T02:56:56;99388.16;;;1.10;100.00
68988;BME280;56038;46.080;11.116;2023-12-20T03:01:58;99383.03;;;1.13;100.00
68988;BME280;56038;46.080;11.116;2023-12-20T03:07:01;99363.31;;;1.14;100.00
68988;BME280;56038;46.080;11.116;2023-12-20T03:12:03;99367.59;;;1.15;100.00
68988;BME280;56038;46.080;11.116;2023-12-20T03:17:05;99350.44;;;1.15;100.00
68988;BME280;56038;46.080;11.116;2023-12-20T03:22:08;99344.41;;;1.21;100.00
68988;BME280;56038;46.080;11.116;2023-12-20T03:33:12;99340.09;;;1.31;100.00
68988;BME280;56038;46.080;11.116;2023-12-20T03:38:15;99334.94;;;1.31;100.00
68988;BME280;56038;46.080;11.116;2023-12-20T03:43:16;99330.66;;;1.30;100.00
68988;BME280;56038;46.080;11.116;2023-12-20T03:48:18;99323.81;;;1.27;100.00
68988;BME280;56038;46.080;11.116;2023-12-20T03:53:21;99316.97;;;1.28;100.00
68988;BME280;56038;46.080;11.116;2023-12-20T03:58:23;99316.94;;;1.32;100.00
68988;BME280;56038;46.080;11.116;2023-12-20T04:03:25;99314.31;;;1.37;100.00
68988;BME280;56038;46.080;11.116;2023-12-20T04:08:28;99289.50;;;1.31;100.00
68988;BME280;56038;46.080;11.116;2023-12-20T04:13:29;99300.66;;;1.29;100.00
68988;BME280;56038;46.080;11.116;2023-12-20T04:18:31;99287.78;;;1.24;100.00
68988;BME280;56038;46.080;11.116;2023-12-20T04:23:34;99288.63;;;1.25;100.00
68988;BME280;56038;46.080;11.116;2023-12-20T04:28:36;99286.06;;;1.29;100.00
68988;BME280;56038;46.080;11.116;2023-12-20T04:33:38;99279.19;;;1.34;100.00
68988;BME280;56038;46.080;11.116;2023-12-20T04:38:41;99272.28;;;1.41;100.00
68988;BME280;56038;46.080;11.116;2023-12-20T04:43:42;99268.84;;;1.45;100.00
68988;BME280;56038;46.080;11.116;2023-12-20T04:48:44;99272.25;;;1.47;100.00
68988;BME280;56038;46.080;11.116;2023-12-20T04:53:47;99256.84;;;1.39;100.00
68988;BME280;56038;46.080;11.116;2023-12-20T04:58:49;99253.38;;;1.42;100.00
68988;BME280;56038;46.080;11.116;2023-12-20T05:03:50;99237.94;;;1.46;100.00
68988;BME280;56038;46.080;11.116;2023-12-20T05:08:53;99245.59;;;1.54;100.00
68988;BME280;56038;46.080;11.116;2023-12-20T05:13:55;99235.31;;;1.54;100.00
68988;BME280;56038;46.080;11.116;2023-12-20T05:18:57;99224.13;;;1.57;100.00
68988;BME280;56038;46.080;11.116;2023-12-20T05:24:02;99226.72;;;1.58;100.00
68988;BME280;56038;46.080;11.116;2023-12-20T05:29:04;99218.94;;;1.66;100.00
68988;BME280;56038;46.080;11.116;2023-12-20T05:34:06;99222.34;;;1.69;100.00
68988;BME280;56038;46.080;11.116;2023-12-20T05:39:46;99247.19;;;1.73;100.00
68988;BME280;56038;46.080;11.116;2023-12-20T05:44:48;99218.88;;;1.73;100.00
68988;BME280;56038;46.080;11.116;2023-12-20T05:49:50;99234.25;;;1.84;100.00
68988;BME280;56038;46.080;11.116;2023-12-20T05:54:53;99235.13;;;1.83;100.00
68988;BME280;56038;46.080;11.116;2023-12-20T05:59:56;99228.31;;;1.76;100.00
68988;BME280;56038;46.080;11.116;2023-12-20T06:04:58;99235.19;;;1.75;100.00
68988;BME280;56038;46.080;11.116;2023-12-20T06:10:01;99231.69;;;1.83;100.00
68988;BME280;56038;46.080;11.116;2023-12-20T06:15:03;99223.94;;;1.87;100.00
68988;BME280;56038;46.080;11.116;2023-12-20T06:20:07;99225.66;;;1.87;100.00
68988;BME280;56038;46.080;11.116;2023-12-20T06:25:26;99217.91;;;1.88;100.00
68988;BME280;56038;46.080;11.116;2023-12-20T06:30:27;99222.22;;;1.91;100.00
68988;BME280;56038;46.080;11.116;2023-12-20T06:35:29;99221.34;;;1.92;100.00
68988;BME280;56038;46.080;11.116;2023-12-20T06:40:32;99219.56;;;1.98;100.00
68988;BME280;56038;46.080;11.116;2023-12-20T06:45:34;99219.50;;;2.06;100.00
68988;BME280;56038;46.080;11.116;2023-12-20T06:50:36;99218.56;;;2.13;100.00
68988;BME280;56038;46.080;11.116;2023-12-20T06:55:41;99222.13;;;2.00;100.00
68988;BME280;56038;46.080;11.116;2023-12-20T07:00:43;99213.56;;;1.98;100.00
68988;BME280;56038;46.080;11.116;2023-12-20T07:05:45;99220.22;;;2.19;100.00
68988;BME280;56038;46.080;11.116;2023-12-20T07:16:27;99224.53;;;2.17;100.00
68988;BME280;56038;46.080;11.116;2023-12-20T07:21:29;99255.44;;;2.20;100.00
68988;BME280;56038;46.080;11.116;2023-12-20T07:26:31;99264.03;;;2.19;100.00
68988;BME280;56038;46.080;11.116;2023-12-20T07:31:34;99272.63;;;2.22;100.00
68988;BME280;56038;46.080;11.116;2023-12-20T07:36:36;99271.75;;;2.25;100.00
68988;BME280;56038;46.080;11.116;2023-12-20T07:41:37;99270.00;;;2.27;100.00
68988;BME280;56038;46.080;11.116;2023-12-20T07:46:40;99294.88;;;2.29;100.00
68988;BME280;56038;46.080;11.116;2023-12-20T07:51:42;99301.69;;;2.36;100.00
68988;BME280;56038;46.080;11.116;2023-12-20T07:56:44;99283.53;;;2.49;100.00
68988;BME280;56038;46.080;11.116;2023-12-20T08:01:48;99278.28;;;2.59;100.00
68988;BME280;56038;46.080;11.116;2023-12-20T08:06:50;99278.19;;;2.70;100.00
68988;BME280;56038;46.080;11.116;2023-12-20T08:11:52;99279.75;;;2.83;100.00
68988;BME280;56038;46.080;11.116;2023-12-20T08:16:55;99279.75;;;2.86;100.00
68988;BME280;56038;46.080;11.116;2023-12-20T08:21:56;99288.31;;;2.88;100.00
68988;BME280;56038;46.080;11.116;2023-12-20T08:26:58;99289.16;;;2.90;100.00
68988;BME280;56038;46.080;11.116;2023-12-20T08:32:01;99277.94;;;2.94;100.00
68988;BME280;56038;46.080;11.116;2023-12-20T08:37:03;99278.72;;;2.99;100.00
68988;BME280;56038;46.080;11.116;2023-12-20T08:42:05;99266.69;;;3.02;100.00
68988;BME280;56038;46.080;11.116;2023-12-20T08:47:08;99277.75;;;3.10;100.00
68988;BME280;56038;46.080;11.116;2023-12-20T08:52:13;99264.81;;;3.16;100.00
68988;BME280;56038;46.080;11.116;2023-12-20T08:57:27;99251.81;;;3.20;100.00
68988;BME280;56038;46.080;11.116;2023-12-20T09:02:30;99247.47;;;3.25;100.00
68988;BME280;56038;46.080;11.116;2023-12-20T09:07:32;99239.69;;;3.27;100.00
68988;BME280;56038;46.080;11.116;2023-12-20T09:12:33;99249.94;;;3.35;100.00
68988;BME280;56038;46.080;11.116;2023-12-20T09:17:37;99241.16;;;3.46;100.00
68988;BME280;56038;46.080;11.116;2023-12-20T09:22:39;99222.84;;;3.61;100.00
68988;BME280;56038;46.080;11.116;2023-12-20T09:27:42;99220.06;;;3.75;100.00
68988;BME280;56038;46.080;11.116;2023-12-20T09:32:45;99214.63;;;3.94;100.00
68988;BME280;56038;46.080;11.116;2023-12-20T09:37:47;99201.44;;;4.10;100.00
68988;BME280;56038;46.080;11.116;2023-12-20T09:42:56;99183.94;;;4.25;100.00
68988;BME280;56038;46.080;11.116;2023-12-20T09:47:59;99175.09;;;4.38;100.00
68988;BME280;56038;46.080;11.116;2023-12-20T09:53:01;99167.94;;;4.52;100.00
68988;BME280;56038;46.080;11.116;2023-12-20T09:58:05;99160.75;;;4.66;100.00
68988;BME280;56038;46.080;11.116;2023-12-20T10:03:11;99146.00;;;4.71;100.00
68988;BME280;56038;46.080;11.116;2023-12-20T10:08:14;99144.13;;;4.79;100.00
68988;BME280;56038;46.080;11.116;2023-12-20T10:13:15;99148.25;;;4.87;100.00
68988;BME280;56038;46.080;11.116;2023-12-20T10:18:20;99135.25;;;4.91;100.00
68988;BME280;56038;46.080;11.116;2023-12-20T10:23:22;99136.78;;;5.00;100.00
68988;BME280;56038;46.080;11.116;2023-12-20T10:28:24;99134.16;;;5.01;100.00
68988;BME280;56038;46.080;11.116;2023-12-20T10:33:30;99120.25;;;5.07;100.00
68988;BME280;56038;46.080;11.116;2023-12-20T10:38:34;99134.72;;;5.16;100.00
68988;BME280;56038;46.080;11.116;2023-12-20T10:43:39;99115.56;;;5.60;100.00
68988;BME280;56038;46.080;11.116;2023-12-20T10:48:44;99111.03;;;5.68;100.00
68988;BME280;56038;46.080;11.116;2023-12-20T10:53:47;99101.53;;;5.68;100.00
68988;BME280;56038;46.080;11.116;2023-12-20T10:58:50;99079.88;;;5.71;100.00
68988;BME280;56038;46.080;11.116;2023-12-20T11:03:54;99082.13;;;5.85;100.00
68988;BME280;56038;46.080;11.116;2023-12-20T11:09:03;99078.59;;;5.87;100.00
68988;BME280;56038;46.080;11.116;2023-12-20T11:14:16;99080.13;;;5.96;100.00
68988;BME280;56038;46.080;11.116;2023-12-20T11:19:22;99073.06;;;6.03;100.00
68988;BME280;56038;46.080;11.116;2023-12-20T11:24:25;99056.41;;;6.10;100.00
68988;BME280;56038;46.080;11.116;2023-12-20T11:29:34;99060.53;;;6.18;100.00
68988;BME280;56038;46.080;11.116;2023-12-20T11:34:37;99047.59;;;6.48;100.00
68988;BME280;56038;46.080;11.116;2023-12-20T11:39:39;99036.00;;;7.15;100.00
68988;BME280;56038;46.080;11.116;2023-12-20T11:44:42;99034.44;;;8.84;98.81
68988;BME280;56038;46.080;11.116;2023-12-20T11:49:48;99034.84;;;10.41;82.23
68988;BME280;56038;46.080;11.116;2023-12-20T11:54:51;99030.13;;;11.42;74.39
68988;BME280;56038;46.080;11.116;2023-12-20T11:59:53;99015.06;;;12.65;65.74
68988;BME280;56038;46.080;11.116;2023-12-20T12:04:56;98998.91;;;14.38;57.15
68988;BME280;56038;46.080;11.116;2023-12-20T12:09:59;98991.84;;;15.35;53.54
68988;BME280;56038;46.080;11.116;2023-12-20T12:15:01;99004.91;;;15.64;50.95
68988;BME280;56038;46.080;11.116;2023-12-20T12:20:06;98990.09;;;14.94;50.58
68988;BME280;56038;46.080;11.116;2023-12-20T12:25:12;98992.22;;;13.90;53.28
68988;BME280;56038;46.080;11.116;2023-12-20T12:30:16;98983.44;;;13.31;55.67
68988;BME280;56038;46.080;11.116;2023-12-20T12:35:20;98967.63;;;12.38;61.15
68988;BME280;56038;46.080;11.116;2023-12-20T12:40:22;98970.59;;;11.47;63.39
68988;BME280;56038;46.080;11.116;2023-12-20T12:45:24;98978.06;;;10.65;67.04
68988;BME280;56038;46.080;11.116;2023-12-20T12:50:28;98962.00;;;10.16;70.25
68988;BME280;56038;46.080;11.116;2023-12-20T12:55:30;98965.72;;;9.71;72.57
68988;BME280;56038;46.080;11.116;2023-12-20T13:00:32;98957.00;;;9.10;77.57
68988;BME280;56038;46.080;11.116;2023-12-20T13:05:35;98947.94;;;8.98;78.83
68988;BME280;56038;46.080;11.116;2023-12-20T13:10:38;98932.50;;;8.93;78.86
68988;BME280;56038;46.080;11.116;2023-12-20T13:15:40;98920.19;;;8.97;78.90
68988;BME280;56038;46.080;11.116;2023-12-20T13:20:43;98923.19;;;9.08;77.94
68988;BME280;56038;46.080;11.116;2023-12-20T13:25:45;98923.34;;;8.83;78.95
68988;BME280;56038;46.080;11.116;2023-12-20T13:30:47;98897.59;;;8.32;82.81
68988;BME280;56038;46.080;11.116;2023-12-20T13:35:50;98902.66;;;7.90;86.58
68988;BME280;56038;46.080;11.116;2023-12-20T13:40:52;98906.91;;;7.44;89.72
68988;BME280;56038;46.080;11.116;2023-12-20T13:45:54;98916.19;;;7.26;89.94
68988;BME280;56038;46.080;11.116;2023-12-20T13:50:58;98906.09;;;7.17;89.74
68988;BME280;56038;46.080;11.116;2023-12-20T13:56:00;98904.81;;;7.04;90.94
68988;BME280;56038;46.080;11.116;2023-12-20T14:01:02;98903.03;;;6.79;93.70
68988;BME280;56038;46.080;11.116;2023-12-20T14:06:06;98906.81;;;6.69;95.78
68988;BME280;56038;46.080;11.116;2023-12-20T14:11:07;98908.19;;;6.53;96.72
68988;BME280;56038;46.080;11.116;2023-12-20T14:16:09;98917.03;;;6.47;97.33
68988;BME280;56038;46.080;11.116;2023-12-20T14:21:13;98916.19;;;6.45;96.39
68988;BME280;56038;46.080;11.116;2023-12-20T14:26:14;98931.75;;;6.45;96.45
68988;BME280;56038;46.080;11.116;2023-12-20T14:31:16;98924.88;;;6.16;99.66
68988;BME280;56038;46.080;11.116;2023-12-20T14:36:19;98920.78;;;6.08;100.00
68988;BME280;56038;46.080;11.116;2023-12-20T14:41:21;98921.13;;;5.95;100.00
68988;BME280;56038;46.080;11.116;2023-12-20T14:46:24;98925.63;;;5.89;100.00
68988;BME280;56038;46.080;11.116;2023-12-20T14:51:28;98935.31;;;5.82;100.00
68988;BME280;56038;46.080;11.116;2023-12-20T14:56:30;98938.41;;;5.64;100.00
68988;BME280;56038;46.080;11.116;2023-12-20T15:01:31;98938.25;;;5.70;100.00
68988;BME280;56038;46.080;11.116;2023-12-20T15:06:35;98947.97;;;5.62;100.00
68988;BME280;56038;46.080;11.116;2023-12-20T15:11:37;98942.91;;;5.57;100.00
68988;BME280;56038;46.080;11.116;2023-12-20T15:16:40;98950.03;;;5.49;100.00
68988;BME280;56038;46.080;11.116;2023-12-20T15:21:43;98957.22;;;5.39;100.00
68988;BME280;56038;46.080;11.116;2023-12-20T15:26:46;98957.56;;;5.26;100.00
68988;BME280;56038;46.080;11.116;2023-12-20T15:31:48;98957.91;;;5.12;100.00
68988;BME280;56038;46.080;11.116;2023-12-20T15:36:53;98962.63;;;4.95;100.00
68988;BME280;56038;46.080;11.116;2023-12-20T15:41:55;98968.94;;;4.83;100.00
68988;BME280;56038;46.080;11.116;2023-12-20T15:46:57;98982.97;;;4.73;100.00
68988;BME280;56038;46.080;11.116;2023-12-20T15:52:00;98983.56;;;4.47;100.00
68988;BME280;56038;46.080;11.116;2023-12-20T15:57:02;98987.16;;;4.40;100.00
68988;BME280;56038;46.080;11.116;2023-12-20T16:02:04;98991.69;;;4.30;100.00
68988;BME280;56038;46.080;11.116;2023-12-20T16:07:07;98995.22;;;4.25;100.00
68988;BME280;56038;46.080;11.116;2023-12-20T16:12:09;99009.09;;;4.20;100.00
68988;BME280;56038;46.080;11.116;2023-12-20T16:17:11;99031.53;;;4.20;100.00
68988;BME280;56038;46.080;11.116;2023-12-20T16:22:14;99037.47;;;4.24;100.00
68988;BME280;56038;46.080;11.116;2023-12-20T16:27:16;99029.00;;;4.17;100.00
68988;BME280;56038;46.080;11.116;2023-12-20T16:32:17;99037.72;;;4.13;100.00
68988;BME280;56038;46.080;11.116;2023-12-20T16:37:20;99042.06;;;4.09;100.00
68988;BME280;56038;46.080;11.116;2023-12-20T16:42:22;99055.03;;;4.06;100.00
68988;BME280;56038;46.080;11.116;2023-12-20T16:47:24;99048.41;;;3.93;100.00
68988;BME280;56038;46.080;11.116;2023-12-20T16:52:27;99059.88;;;3.80;100.00
68988;BME280;56038;46.080;11.116;2023-12-20T16:57:29;99070.25;;;3.75;100.00
68988;BME280;56038;46.080;11.116;2023-12-20T17:02:30;99059.06;;;3.75;100.00
68988;BME280;56038;46.080;11.116;2023-12-20T17:07:34;99059.00;;;3.78;100.00
68988;BME280;56038;46.080;11.116;2023-12-20T17:12:35;99062.66;;;3.68;100.00
68988;BME280;56038;46.080;11.116;2023-12-20T17:17:37;99082.56;;;3.59;100.00
68988;BME280;56038;46.080;11.116;2023-12-20T17:22:40;99087.91;;;3.50;100.00
68988;BME280;56038;46.080;11.116;2023-12-20T17:27:42;99093.13;;;3.46;100.00
68988;BME280;56038;46.080;11.116;2023-12-20T17:32:45;99100.09;;;3.41;100.00
68988;BME280;56038;46.080;11.116;2023-12-20T17:37:50;99107.97;;;3.33;100.00
68988;BME280;56038;46.080;11.116;2023-12-20T17:42:54;99112.25;;;3.36;100.00
68988;BME280;56038;46.080;11.116;2023-12-20T17:47:56;99103.75;;;3.26;100.00
68988;BME280;56038;46.080;11.116;2023-12-20T17:52:59;99119.19;;;3.29;100.00
68988;BME280;56038;46.080;11.116;2023-12-20T17:58:01;99112.53;;;3.16;100.00
68988;BME280;56038;46.080;11.116;2023-12-20T18:03:03;99118.53;;;3.15;100.00
68988;BME280;56038;46.080;11.116;2023-12-20T18:08:06;99117.91;;;3.02;100.00
68988;BME280;56038;46.080;11.116;2023-12-20T18:13:08;99123.06;;;2.99;100.00
68988;BME280;56038;46.080;11.116;2023-12-20T18:18:10;99129.91;;;3.05;100.00
68988;BME280;56038;46.080;11.116;2023-12-20T18:23:13;99125.59;;;3.05;100.00
68988;BME280;56038;46.080;11.116;2023-12-20T18:28:15;99124.00;;;2.95;100.00
68988;BME280;56038;46.080;11.116;2023-12-20T18:33:17;99134.47;;;2.84;100.00
68988;BME280;56038;46.080;11.116;2023-12-20T18:38:20;99140.56;;;2.77;100.00
68988;BME280;56038;46.080;11.116;2023-12-20T18:43:22;99137.94;;;2.80;100.00
68988;BME280;56038;46.080;11.116;2023-12-20T18:48:25;99147.44;;;2.77;100.00
68988;BME280;56038;46.080;11.116;2023-12-20T18:53:29;99151.66;;;2.85;100.00
68988;BME280;56038;46.080;11.116;2023-12-20T18:58:31;99152.53;;;2.84;100.00
68988;BME280;56038;46.080;11.116;2023-12-20T19:03:32;99162.00;;;2.81;100.00
68988;BME280;56038;46.080;11.116;2023-12-20T19:08:36;99191.25;;;2.80;100.00
68988;BME280;56038;46.080;11.116;2023-12-20T19:13:39;99200.78;;;2.73;100.00
68988;BME280;56038;46.080;11.116;2023-12-20T19:18:41;99188.00;;;2.64;100.00
68988;BME280;56038;46.080;11.116;2023-12-20T19:23:44;99198.38;;;2.58;100.00
68988;BME280;56038;46.080;11.116;2023-12-20T19:28:46;99212.16;;;2.55;100.00
68988;BME280;56038;46.080;11.116;2023-12-20T19:33:48;99217.31;;;2.57;100.00
68988;BME280;56038;46.080;11.116;2023-12-20T19:38:54;99213.06;;;2.50;100.00
68988;BME280;56038;46.080;11.116;2023-12-20T19:43:56;99209.78;;;2.35;100.00
68988;BME280;56038;46.080;11.116;2023-12-20T19:48:58;99211.47;;;2.36;100.00
68988;BME280;56038;46.080;11.116;2023-12-20T19:54:01;99217.47;;;2.40;100.00
68988;BME280;56038;46.080;11.116;2023-12-20T19:59:03;99237.25;;;2.39;100.00
68988;BME280;56038;46.080;11.116;2023-12-20T20:04:05;99223.53;;;2.34;100.00
68988;BME280;56038;46.080;11.116;2023-12-20T20:09:10;99224.41;;;2.33;100.00
68988;BME280;56038;46.080;11.116;2023-12-20T20:14:13;99217.56;;;2.31;100.00
68988;BME280;56038;46.080;11.116;2023-12-20T20:19:15;99212.41;;;2.31;100.00
68988;BME280;56038;46.080;11.116;2023-12-20T20:24:21;99214.91;;;2.40;100.00
68988;BME280;56038;46.080;11.116;2023-12-20T20:29:24;99213.22;;;2.37;100.00
68988;BME280;56038;46.080;11.116;2023-12-20T20:34:26;99227.94;;;2.25;100.00
68988;BME280;56038;46.080;11.116;2023-12-20T20:39:30;99221.06;;;2.21;100.00
68988;BME280;56038;46.080;11.116;2023-12-20T20:44:33;99218.56;;;2.15;100.00
68988;BME280;56038;46.080;11.116;2023-12-20T20:49:35;99223.72;;;2.13;100.00
68988;BME280;56038;46.080;11.116;2023-12-20T20:54:38;99227.22;;;2.07;100.00
68988;BME280;56038;46.080;11.116;2023-12-20T20:59:40;99235.03;;;1.97;100.00
68988;BME280;56038;46.080;11.116;2023-12-20T21:04:44;99226.53;;;1.84;100.00
68988;BME280;56038;46.080;11.116;2023-12-20T21:09:47;99236.84;;;1.81;100.00
68988;BME280;56038;46.080;11.116;2023-12-20T21:14:50;99234.28;;;1.81;100.00
68988;BME280;56038;46.080;11.116;2023-12-20T21:19:51;99233.44;;;1.80;100.00
68988;BME280;56038;46.080;11.116;2023-12-20T21:24:55;99228.25;;;1.85;100.00
68988;BME280;56038;46.080;11.116;2023-12-20T21:29:56;99233.38;;;1.90;100.00
68988;BME280;56038;46.080;11.116;2023-12-20T21:34:59;99219.63;;;1.92;100.00
68988;BME280;56038;46.080;11.116;2023-12-20T21:40:03;99207.63;;;1.87;100.00
68988;BME280;56038;46.080;11.116;2023-12-20T21:45:06;99211.00;;;1.96;100.00
68988;BME280;56038;46.080;11.116;2023-12-20T21:50:08;99211.75;;;2.07;100.00
68988;BME280;56038;46.080;11.116;2023-12-20T21:55:12;99195.47;;;2.07;100.00
68988;BME280;56038;46.080;11.116;2023-12-20T22:00:15;99187.72;;;2.08;100.00
68988;BME280;56038;46.080;11.116;2023-12-20T22:05:18;99185.09;;;2.12;100.00
68988;BME280;56038;46.080;11.116;2023-12-20T22:10:21;99187.63;;;2.16;100.00
68988;BME280;56038;46.080;11.116;2023-12-20T22:15:23;99200.44;;;2.25;100.00
68988;BME280;56038;46.080;11.116;2023-12-20T22:20:25;99192.66;;;2.28;100.00
68988;BME280;56038;46.080;11.116;2023-12-20T22:25:29;99187.56;;;2.25;100.00
68988;BME280;56038;46.080;11.116;2023-12-20T22:30:31;99175.56;;;2.21;100.00
68988;BME280;56038;46.080;11.116;2023-12-20T22:35:42;99184.16;;;2.20;100.00
68988;BME280;56038;46.080;11.116;2023-12-20T22:40:45;99179.91;;;2.16;100.00
68988;BME280;56038;46.080;11.116;2023-12-20T22:45:47;99177.41;;;2.04;100.00
68988;BME280;56038;46.080;11.116;2023-12-20T22:50:49;99182.63;;;1.99;100.00
68988;BME280;56038;46.080;11.116;2023-12-20T22:55:52;99189.50;;;1.99;100.00
68988;BME280;56038;46.080;11.116;2023-12-20T23:00:54;99189.56;;;1.93;100.00
68988;BME280;56038;46.080;11.116;2023-12-20T23:05:56;99200.00;;;1.77;100.00
68988;BME280;56038;46.080;11.116;2023-12-20T23:10:59;99199.16;;;1.72;100.00
68988;BME280;56038;46.080;11.116;2023-12-20T23:16:02;99193.19;;;1.67;100.00
68988;BME280;56038;46.080;11.116;2023-12-20T23:26:59;99190.69;;;1.58;100.00
68988;BME280;56038;46.080;11.116;2023-12-20T23:32:03;99172.66;;;1.55;100.00
68988;BME280;56038;46.080;11.116;2023-12-20T23:37:05;99166.72;;;1.50;100.00
68988;BME280;56038;46.080;11.116;2023-12-20T23:42:08;99160.72;;;1.48;100.00
68988;BME280;56038;46.080;11.116;2023-12-20T23:47:10;99165.91;;;1.42;100.00
68988;BME280;56038;46.080;11.116;2023-12-20T23:58:08;99174.53;;;1.33;100.00
